Time;durP1;ratioP1;P1;durP2;ratioP2;P2;SDS_P1;SDS_P2;PMS_P1;PMS_P2;Temp;Humidity;BMP_temperature;BMP_pressure;BME280_temperature;BME280_humidity;BME280_pressure;Samples;Min_cycle;Max_cycle;Signal;HPM_P1;HPM_P2
2023/03/19 00:00:34;;;;;;;5.67;3.90;;;13.20;99.90;;;13.31;nan;100304.19;4953265;28;20702;-66
2023/03/19 00:03:01;;;;;;;4.67;4.00;;;13.10;99.90;;;13.23;nan;100314.50;4952820;28;20662;-70
2023/03/19 00:05:28;;;;;;;5.27;3.87;;;13.00;99.90;;;13.17;nan;100302.78;4953336;28;20703;-67
2023/03/19 00:07:55;;;;;;;5.97;4.17;;;13.00;99.90;;;13.13;nan;100303.19;4951521;28;20663;-70
2023/03/19 00:10:22;;;;;;;7.27;4.93;;;12.90;99.90;;;13.12;nan;100304.13;4953367;28;20706;-66
2023/03/19 00:12:49;;;;;;;6.07;5.20;;;12.90;99.90;;;13.11;nan;100305.97;4958208;28;20636;-69
2023/03/19 00:15:16;;;;;;;7.80;5.23;;;12.90;99.90;;;13.11;nan;100307.75;4952794;28;20643;-67
2023/03/19 00:17:43;;;;;;;6.20;5.20;;;12.90;99.90;;;13.12;nan;100312.00;4952500;28;20656;-66
2023/03/19 00:20:13;;;;;;;10.33;5.80;;;12.90;99.90;;;13.12;nan;100310.22;4952817;28;20635;-66
2023/03/19 00:22:41;;;;;;;7.00;4.70;;;12.90;99.90;;;13.13;nan;100316.28;4952823;28;20780;-66
2023/03/19 00:25:08;;;;;;;7.57;4.80;;;12.90;99.90;;;13.11;nan;100312.97;4955889;28;20631;-69
2023/03/19 00:27:36;;;;;;;5.67;3.70;;;12.90;99.90;;;13.11;nan;100312.97;4961937;28;21237;-66
2023/03/19 00:30:06;;;;;;;6.83;4.20;;;12.90;99.90;;;13.06;nan;100315.16;4954367;28;20634;-67
2023/03/19 00:32:35;;;;;;;6.70;4.77;;;12.80;99.90;;;13.02;nan;100324.22;4956297;28;20737;-67
2023/03/19 00:35:05;;;;;;;9.23;4.53;;;12.80;99.90;;;12.98;nan;100322.81;4956386;28;21183;-69
2023/03/19 00:37:33;;;;;;;4.73;4.30;;;12.80;99.90;;;12.92;nan;100318.13;4954227;28;21476;-68
2023/03/19 00:40:00;;;;;;;9.93;6.20;;;12.70;99.90;;;12.87;nan;100320.31;4951777;28;21225;-67
2023/03/19 00:42:28;;;;;;;10.57;6.70;;;12.70;99.90;;;12.86;nan;100321.28;4953540;29;20615;-68
2023/03/19 00:44:55;;;;;;;6.50;5.27;;;12.60;99.90;;;12.87;nan;100329.00;4947414;28;20666;-67
2023/03/19 00:47:23;;;;;;;8.13;4.60;;;12.70;99.90;;;12.91;nan;100316.44;4955176;28;21259;-68
2023/03/19 00:49:50;;;;;;;8.87;5.60;;;12.70;99.90;;;12.89;nan;100321.84;4954717;29;20619;-67
2023/03/19 00:52:17;;;;;;;6.80;5.30;;;12.70;99.90;;;12.89;nan;100323.63;4955101;28;20671;-67
2023/03/19 00:54:44;;;;;;;7.90;4.33;;;12.70;99.90;;;12.95;nan;100323.09;4954556;28;20698;-67
2023/03/19 00:57:11;;;;;;;7.87;5.60;;;12.70;99.90;;;12.93;nan;100325.00;4954621;29;20705;-68
2023/03/19 00:59:38;;;;;;;6.80;3.50;;;12.70;99.90;;;12.96;nan;100328.22;4955175;28;20673;-69
2023/03/19 01:02:05;;;;;;;8.67;4.37;;;12.80;99.90;;;12.87;nan;100318.53;4956008;29;21005;-67
2023/03/19 01:04:32;;;;;;;7.90;5.10;;;12.70;99.90;;;12.87;nan;100321.13;4956031;28;20768;-65
2023/03/19 01:07:00;;;;;;;5.73;4.20;;;12.70;99.90;;;12.89;nan;100318.38;4955009;28;20672;-67
2023/03/19 01:09:26;;;;;;;8.83;6.03;;;12.70;99.90;;;12.89;nan;100316.59;4954454;29;20701;-67
2023/03/19 01:11:53;;;;;;;6.23;4.50;;;12.70;99.90;;;12.89;nan;100324.44;4954802;28;20670;-68
2023/03/19 01:14:20;;;;;;;5.87;4.57;;;12.70;99.90;;;12.87;nan;100323.75;4954442;28;20639;-66
2023/03/19 01:16:48;;;;;;;9.80;4.23;;;12.70;99.90;;;12.87;nan;100326.38;4955266;28;20660;-66
2023/03/19 01:19:15;;;;;;;7.37;4.73;;;12.70;99.90;;;12.85;nan;100320.44;4954839;28;20620;-64
2023/03/19 01:21:45;;;;;;;9.47;5.10;;;12.60;99.90;;;12.82;nan;100317.28;4954932;28;20640;-67
2023/03/19 01:24:12;;;;;;;6.07;5.30;;;12.60;99.90;;;12.79;nan;100313.13;4954647;28;20644;-67
2023/03/19 01:26:39;;;;;;;6.50;4.50;;;12.60;99.90;;;12.80;nan;100321.81;4968329;28;20667;-67
2023/03/19 01:29:07;;;;;;;5.43;4.27;;;12.60;99.90;;;12.85;nan;100327.47;4965539;28;21317;-65
2023/03/19 01:31:36;;;;;;;8.13;5.00;;;12.70;99.90;;;12.81;nan;100323.44;4955320;28;20675;-67
2023/03/19 01:34:03;;;;;;;4.77;4.27;;;12.60;99.90;;;12.76;nan;100323.84;4954108;28;20661;-66
2023/03/19 01:36:31;;;;;;;7.10;4.73;;;12.60;99.90;;;12.75;nan;100321.38;4953685;28;21088;-66
2023/03/19 01:38:58;;;;;;;8.90;5.60;;;12.50;99.90;;;12.72;nan;100321.63;4953866;28;20636;-67
2023/03/19 01:41:25;;;;;;;9.40;5.17;;;12.50;99.90;;;12.71;nan;100330.44;4953907;28;20620;-66
2023/03/19 01:43:52;;;;;;;4.47;3.97;;;12.50;99.90;;;12.70;nan;100334.84;4953331;28;21299;-66
2023/03/19 01:46:39;;;;;;;10.07;5.70;;;12.50;99.90;;;12.67;nan;100336.91;4953614;28;20643;-67
2023/03/19 01:49:08;;;;;;;5.37;3.90;;;12.50;99.90;;;12.63;nan;100331.09;4935340;29;20636;-67
2023/03/19 01:51:40;;;;;;;5.73;4.20;;;12.40;99.90;;;12.60;nan;100335.75;4940415;28;20660;-66
2023/03/19 01:54:13;;;;;;;6.13;3.40;;;12.40;99.90;;;12.58;nan;100332.44;4969154;28;20628;-67
2023/03/19 01:56:42;;;;;;;11.20;4.67;;;12.40;99.90;;;12.51;nan;100331.28;4952630;29;20652;-66
2023/03/19 01:59:20;;;;;;;9.73;6.00;;;12.30;99.90;;;12.47;nan;100333.34;4953733;28;20643;-67
2023/03/19 02:02:02;;;;;;;8.83;6.37;;;12.30;99.90;;;12.40;nan;100335.66;4953959;29;20604;-66
2023/03/19 02:04:33;;;;;;;5.87;4.90;;;12.20;99.90;;;12.37;nan;100328.03;4968978;28;20658;-67
2023/03/19 02:07:01;;;;;;;6.13;4.83;;;12.20;99.90;;;12.35;nan;100327.34;4967563;28;21347;-67
2023/03/19 02:09:28;;;;;;;8.47;6.00;;;12.20;99.90;;;12.36;nan;100341.28;4968281;28;21265;-68
2023/03/19 02:11:56;;;;;;;8.43;5.40;;;12.20;99.90;;;12.36;nan;100330.81;4952229;29;20669;-67
2023/03/19 02:14:23;;;;;;;4.33;3.87;;;12.10;99.90;;;12.33;nan;100331.88;4952784;29;21162;-66
2023/03/19 02:16:51;;;;;;;8.70;4.43;;;12.10;99.90;;;12.25;nan;100331.69;4954347;28;20647;-67
2023/03/19 02:19:50;;;;;;;6.60;5.10;;;12.10;99.90;;;12.24;nan;100332.69;4953518;29;20620;-67
2023/03/19 02:22:21;;;;;;;6.23;4.40;;;12.10;99.90;;;12.25;nan;100336.94;4947160;29;20694;-67
2023/03/19 02:25:48;;;;;;;5.47;3.70;;;12.10;99.90;;;12.22;nan;100333.75;4968561;28;20699;-67
2023/03/19 02:28:18;;;;;;;4.03;3.40;;;12.00;99.90;;;12.20;nan;100336.47;4934848;29;20666;-66
2023/03/19 02:30:45;;;;;;;3.80;3.00;;;12.00;99.90;;;12.18;nan;100335.78;4967400;28;20727;-67
2023/03/19 02:33:16;;;;;;;6.97;4.07;;;12.00;99.90;;;12.17;nan;100335.91;4968049;28;20636;-66
2023/03/19 02:35:46;;;;;;;4.00;3.60;;;12.00;99.90;;;12.11;nan;100336.44;4950847;28;20662;-67
2023/03/19 02:38:14;;;;;;;4.83;3.70;;;11.90;99.90;;;12.04;nan;100333.47;4942971;28;20750;-67
2023/03/19 02:40:50;;;;;;;4.17;2.80;;;11.90;99.90;;;12.03;nan;100342.28;4952705;28;20624;-67
2023/03/19 02:43:19;;;;;;;6.83;3.80;;;11.80;99.90;;;12.06;nan;100344.66;4966943;28;20691;-66
2023/03/19 02:45:47;;;;;;;3.77;3.07;;;11.80;99.90;;;12.06;nan;100342.03;4953197;28;20632;-66
2023/03/19 02:48:14;;;;;;;3.80;3.50;;;11.80;99.90;;;12.05;nan;100350.81;4952570;28;20678;-67
2023/03/19 02:50:41;;;;;;;6.07;4.37;;;11.80;99.90;;;12.05;nan;100342.97;4953200;28;20612;-66
2023/03/19 02:53:08;;;;;;;4.67;3.93;;;11.80;99.90;;;12.09;nan;100352.25;4954019;28;20643;-65
2023/03/19 02:55:35;;;;;;;6.40;4.17;;;11.80;99.90;;;12.14;nan;100344.84;4954579;28;20698;-67
2023/03/19 02:58:02;;;;;;;4.13;3.73;;;11.90;99.90;;;12.16;nan;100344.72;4953584;28;20644;-67
2023/03/19 03:00:29;;;;;;;5.53;3.00;;;11.90;99.90;;;12.18;nan;100348.84;4951905;28;20628;-67
2023/03/19 03:02:57;;;;;;;5.70;4.03;;;11.90;99.90;;;12.18;nan;100348.84;4954154;28;20996;-66
2023/03/19 03:05:24;;;;;;;5.17;3.50;;;12.00;99.90;;;12.21;nan;100358.22;4951776;29;21023;-66
2023/03/19 03:07:52;;;;;;;3.80;3.20;;;12.00;99.90;;;12.22;nan;100354.69;4952250;28;21339;-67
2023/03/19 03:10:19;;;;;;;1.43;1.33;;;12.00;99.90;;;12.23;nan;100356.31;4952928;29;21397;-66
2023/03/19 03:12:46;;;;;;;2.33;2.13;;;12.00;99.90;;;12.22;nan;100357.28;4967793;28;21234;-67
2023/03/19 03:15:13;;;;;;;3.07;2.80;;;12.00;99.90;;;12.26;nan;100364.75;4954009;28;20618;-67
2023/03/19 03:17:44;;;;;;;3.80;3.43;;;12.10;99.90;;;12.30;nan;100358.31;4952557;28;21094;-67
2023/03/19 03:20:13;;;;;;;3.97;2.80;;;12.10;99.90;;;12.31;nan;100357.34;4953429;29;20627;-66
2023/03/19 03:22:41;;;;;;;10.67;3.33;;;12.10;99.90;;;12.29;nan;100361.88;4952674;29;20694;-67
2023/03/19 03:25:09;;;;;;;4.43;3.07;;;12.10;99.90;;;12.33;nan;100373.75;4952834;28;20639;-67
2023/03/19 03:27:37;;;;;;;3.37;2.90;;;12.10;99.90;;;12.32;nan;100364.25;4951353;28;21034;-67
2023/03/19 03:30:07;;;;;;;4.57;3.80;;;12.10;99.90;;;12.29;nan;100361.88;4952565;28;20695;-66
2023/03/19 03:32:38;;;;;;;3.33;2.60;;;12.10;99.90;;;12.25;nan;100370.94;4951042;28;20672;-64
2023/03/19 03:35:07;;;;;;;2.57;2.37;;;12.00;99.90;;;12.22;nan;100365.94;4966458;28;20995;-67
2023/03/19 03:37:36;;;;;;;3.77;2.93;;;12.00;99.90;;;12.20;nan;100367.06;4950803;29;20656;-67
2023/03/19 03:40:05;;;;;;;5.37;3.80;;;12.00;99.90;;;12.10;nan;100371.38;4950998;28;20636;-67
2023/03/19 03:42:33;;;;;;;3.93;2.37;;;11.90;99.90;;;12.09;nan;100370.56;4950282;28;20694;-68
2023/03/19 03:45:00;;;;;;;4.60;2.97;;;11.90;99.90;;;12.05;nan;100371.75;4951141;28;20720;-67
2023/03/19 03:47:27;;;;;;;5.30;3.27;;;11.90;99.90;;;12.05;nan;100378.78;4950203;28;20805;-65
2023/03/19 03:49:54;;;;;;;2.43;2.23;;;11.80;99.90;;;12.06;nan;100376.03;4952077;28;20706;-66
2023/03/19 03:52:21;;;;;;;4.07;2.97;;;11.80;99.90;;;12.07;nan;100369.84;4945803;28;20740;-66
2023/03/19 03:54:48;;;;;;;2.63;2.40;;;11.80;99.90;;;12.08;nan;100376.72;4951037;28;20639;-66
2023/03/19 03:57:15;;;;;;;3.57;3.03;;;11.80;99.90;;;12.07;nan;100377.69;4950672;28;20666;-67
2023/03/19 03:59:42;;;;;;;2.57;2.37;;;11.80;99.90;;;12.08;nan;100378.50;4966357;28;20675;-67
2023/03/19 04:02:09;;;;;;;2.60;1.73;;;11.80;99.90;;;12.09;nan;100377.56;4950468;28;21014;-67
2023/03/19 04:04:36;;;;;;;3.07;2.87;;;11.80;99.90;;;12.05;nan;100382.19;4953103;28;21059;-66
2023/03/19 04:07:03;;;;;;;2.90;2.70;;;11.80;99.90;;;12.03;nan;100386.72;4953103;28;20734;-67
2023/03/19 04:09:30;;;;;;;3.00;2.80;;;11.80;99.90;;;12.03;nan;100383.31;4946030;28;21229;-67
2023/03/19 04:11:57;;;;;;;5.67;2.50;;;11.80;99.90;;;12.05;nan;100387.44;4955800;29;20729;-67
2023/03/19 04:14:24;;;;;;;3.20;2.83;;;11.80;99.90;;;12.06;nan;100383.88;4955252;28;20655;-67
2023/03/19 04:16:51;;;;;;;2.40;2.20;;;11.80;99.90;;;12.06;nan;100386.50;4955973;28;21089;-64
2023/03/19 04:19:18;;;;;;;2.60;2.40;;;11.90;99.90;;;12.06;nan;100388.25;4955305;28;20624;-67
2023/03/19 04:21:45;;;;;;;5.57;3.10;;;11.90;99.90;;;12.08;nan;100391.56;4954809;28;20653;-65
2023/03/19 04:24:13;;;;;;;2.50;2.30;;;11.90;99.90;;;12.12;nan;100390.38;4955986;28;20627;-66
2023/03/19 04:26:40;;;;;;;2.70;2.23;;;11.90;99.90;;;12.11;nan;100394.78;4955053;28;20702;-67
2023/03/19 04:29:07;;;;;;;3.20;2.33;;;11.90;99.90;;;12.05;nan;100399.69;4955195;28;20872;-67
2023/03/19 04:31:34;;;;;;;2.97;2.70;;;11.90;99.90;;;12.01;nan;100403.53;4955500;28;20672;-66
2023/03/19 04:34:01;;;;;;;3.30;3.00;;;11.80;99.90;;;12.04;nan;100408.47;4955194;28;21205;-66
2023/03/19 04:36:28;;;;;;;4.93;3.50;;;11.80;99.90;;;12.04;nan;100411.09;4953611;28;20664;-67
2023/03/19 04:38:55;;;;;;;3.50;3.20;;;11.80;99.90;;;12.03;nan;100407.63;4953891;28;20694;-66
2023/03/19 04:41:22;;;;;;;3.50;3.20;;;11.80;99.90;;;12.04;nan;100418.94;4956006;28;20630;-66
2023/03/19 04:43:50;;;;;;;5.50;4.03;;;11.80;99.90;;;12.03;nan;100415.50;4961097;28;20640;-67
2023/03/19 04:46:17;;;;;;;4.30;3.90;;;11.80;99.90;;;12.05;nan;100412.78;4960746;28;21216;-67
2023/03/19 04:48:44;;;;;;;5.13;3.90;;;11.80;99.90;;;12.08;nan;100415.94;4954395;28;20647;-66
2023/03/19 04:51:11;;;;;;;5.03;3.67;;;11.90;99.90;;;12.11;nan;100422.72;4954640;28;20612;-66
2023/03/19 04:53:38;;;;;;;3.17;2.77;;;11.90;99.90;;;12.11;nan;100430.56;4954111;28;20638;-67
2023/03/19 04:56:06;;;;;;;3.23;2.93;;;11.90;99.90;;;12.11;nan;100426.19;4954584;28;20628;-66
2023/03/19 04:58:34;;;;;;;2.83;2.47;;;11.90;99.90;;;12.07;nan;100418.69;4954991;28;20636;-66
2023/03/19 05:01:01;;;;;;;2.40;2.20;;;11.90;99.90;;;12.04;nan;100416.31;4954463;28;20690;-67
2023/03/19 05:03:28;;;;;;;3.07;2.77;;;11.90;99.90;;;11.95;nan;100410.06;4955372;28;21199;-67
2023/03/19 05:05:55;;;;;;;2.00;1.90;;;11.80;99.90;;;11.84;nan;100410.09;4954384;28;20643;-66
2023/03/19 05:08:22;;;;;;;3.00;2.80;;;11.70;99.90;;;11.87;nan;100411.63;4953431;28;20676;-66
2023/03/19 05:10:49;;;;;;;2.30;2.20;;;11.60;99.90;;;11.80;nan;100418.31;4953917;29;20638;-67
2023/03/19 05:13:16;;;;;;;2.57;2.37;;;11.60;99.90;;;11.74;nan;100416.19;4954786;28;21031;-67
2023/03/19 05:15:44;;;;;;;4.33;2.67;;;11.50;99.90;;;11.74;nan;100416.19;4953864;28;20627;-67
2023/03/19 05:18:12;;;;;;;3.03;2.40;;;11.50;99.90;;;11.74;nan;100419.63;4952578;28;20660;-66
2023/03/19 05:20:39;;;;;;;4.50;2.77;;;11.50;99.90;;;11.75;nan;100418.69;4954733;28;20636;-67
2023/03/19 05:23:06;;;;;;;2.63;2.27;;;11.50;99.90;;;11.71;nan;100422.50;4954271;28;20755;-66
2023/03/19 05:25:36;;;;;;;2.43;2.33;;;11.50;99.90;;;11.74;nan;100432.69;4955010;28;20620;-66
2023/03/19 05:28:04;;;;;;;2.80;2.60;;;11.50;99.90;;;11.74;nan;100431.84;4953634;28;21312;-66
2023/03/19 05:30:31;;;;;;;2.23;2.03;;;11.50;99.90;;;11.74;nan;100427.47;4954664;28;21205;-67
2023/03/19 05:33:00;;;;;;;7.00;2.53;;;11.50;99.90;;;11.79;nan;100432.34;4954137;28;20682;-66
2023/03/19 05:35:29;;;;;;;3.53;3.20;;;11.60;99.90;;;11.82;nan;100435.53;4953989;28;20628;-66
2023/03/19 05:37:56;;;;;;;3.47;2.97;;;11.60;99.90;;;11.85;nan;100431.84;4953330;28;20671;-67
2023/03/19 05:40:23;;;;;;;4.60;3.67;;;11.60;99.90;;;11.90;nan;100438.38;4953590;28;21204;-67
2023/03/19 05:42:50;;;;;;;4.87;3.80;;;11.70;99.90;;;11.92;nan;100449.53;4953057;28;20640;-67
2023/03/19 05:45:18;;;;;;;5.17;3.53;;;11.70;99.90;;;11.97;nan;100447.38;4954241;28;20632;-67
2023/03/19 05:47:49;;;;;;;3.90;3.23;;;11.70;99.90;;;12.00;nan;100449.75;4952908;28;20674;-65
2023/03/19 05:50:17;;;;;;;3.67;3.37;;;11.80;99.90;;;12.04;nan;100453.78;4949235;28;20649;-67
2023/03/19 05:52:44;;;;;;;2.90;2.70;;;11.80;99.90;;;12.08;nan;100451.72;4953178;28;21244;-67
2023/03/19 05:55:11;;;;;;;5.07;3.47;;;11.90;99.90;;;12.08;nan;100456.97;4954204;29;20632;-68
2023/03/19 05:57:38;;;;;;;6.70;3.37;;;11.90;99.90;;;12.10;nan;100439.34;4952650;28;20670;-66
2023/03/19 06:00:07;;;;;;;4.13;3.50;;;11.90;99.90;;;12.16;nan;100441.50;4954183;29;20804;-66
2023/03/19 06:02:35;;;;;;;3.20;2.97;;;11.90;99.90;;;12.18;nan;100450.06;4953108;28;20636;-67
2023/03/19 06:05:03;;;;;;;5.17;3.40;;;12.00;99.90;;;12.19;nan;100452.53;4953637;28;20624;-67
2023/03/19 06:07:30;;;;;;;4.93;3.53;;;12.00;99.90;;;12.21;nan;100455.00;4967524;28;20737;-67
2023/03/19 06:09:57;;;;;;;3.80;3.47;;;12.00;99.90;;;12.23;nan;100451.31;4953469;28;20615;-67
2023/03/19 06:12:24;;;;;;;7.20;3.40;;;12.00;99.90;;;12.24;nan;100455.63;4953415;28;21257;-67
2023/03/19 06:14:51;;;;;;;5.60;3.07;;;12.10;99.90;;;12.27;nan;100457.13;4954287;29;20620;-67
2023/03/19 06:17:18;;;;;;;4.40;2.67;;;12.10;99.90;;;12.23;nan;100467.03;4952859;28;20664;-68
2023/03/19 06:19:45;;;;;;;3.57;2.80;;;12.10;99.90;;;12.21;nan;100470.72;4953964;28;20632;-67
2023/03/19 06:22:12;;;;;;;3.50;3.20;;;12.00;99.90;;;12.22;nan;100465.34;4952910;28;20644;-68
2023/03/19 06:24:39;;;;;;;3.50;2.87;;;12.00;99.90;;;12.18;nan;100463.13;4953891;28;20685;-66
2023/03/19 06:27:06;;;;;;;3.03;2.77;;;12.00;99.90;;;12.16;nan;100470.28;4952435;28;20683;-68
2023/03/19 06:29:33;;;;;;;2.03;1.90;;;11.90;99.90;;;12.16;nan;100472.88;4953881;28;20631;-67
2023/03/19 06:32:01;;;;;;;2.67;2.47;;;12.00;99.90;;;12.19;nan;100476.06;4953399;28;20672;-68
2023/03/19 06:34:28;;;;;;;2.37;2.20;;;12.00;99.90;;;12.25;nan;100470.34;4967333;28;20640;-67
2023/03/19 06:36:55;;;;;;;3.03;2.47;;;12.10;99.90;;;12.31;nan;100476.84;4951380;28;20656;-67
2023/03/19 06:39:22;;;;;;;3.47;2.67;;;12.10;99.90;;;12.34;nan;100477.44;4952327;28;20638;-66
2023/03/19 06:41:50;;;;;;;2.40;2.20;;;12.20;99.90;;;12.39;nan;100477.06;4952140;28;20640;-66
2023/03/19 06:44:17;;;;;;;2.50;2.30;;;12.20;99.90;;;12.41;nan;100469.94;4954499;28;20650;-66
2023/03/19 06:46:44;;;;;;;3.50;2.23;;;12.20;99.90;;;12.44;nan;100480.13;4951198;28;20664;-65
2023/03/19 06:49:11;;;;;;;3.30;3.00;;;12.30;99.90;;;12.48;nan;100476.31;4951566;28;20636;-63
2023/03/19 06:51:38;;;;;;;2.45;2.35;;;12.30;99.90;;;12.52;nan;100482.13;4952567;28;20632;-66
2023/03/19 06:54:05;;;;;;;2.90;2.60;;;12.30;99.90;;;12.55;nan;100500.19;4951877;29;20699;-66
2023/03/19 06:56:32;;;;;;;2.50;2.30;;;12.30;99.90;;;12.57;nan;100493.03;4953508;28;20664;-65
2023/03/19 06:58:59;;;;;;;3.60;2.50;;;12.40;99.90;;;12.65;nan;100496.69;4952495;28;20644;-65
2023/03/19 07:01:26;;;;;;;5.77;4.70;;;12.40;99.90;;;12.74;nan;100495.09;4952715;28;20639;-65
2023/03/19 07:03:54;;;;;;;6.50;4.27;;;12.50;99.90;;;12.84;nan;100499.44;4948835;29;20637;-64
2023/03/19 07:09:07;;;;;;;3.13;2.93;;;12.70;99.90;;;12.91;nan;100505.84;4961033;28;20728;-63
2023/03/19 07:11:34;;;;;;;2.73;2.50;;;12.70;99.90;;;12.93;nan;100508.31;4971502;28;20685;-66
2023/03/19 07:14:02;;;;;;;2.80;2.63;;;12.70;99.90;;;12.96;nan;100511.53;4946290;29;20668;-66
2023/03/19 07:16:29;;;;;;;5.10;2.50;;;12.70;99.90;;;13.00;nan;100505.06;4952570;29;20687;-66
2023/03/19 07:18:56;;;;;;;3.90;2.90;;;12.80;99.90;;;13.06;nan;100514.22;4960635;28;21204;-66
2023/03/19 07:21:23;;;;;;;2.93;2.73;;;12.80;99.90;;;13.03;nan;100509.22;4972144;28;20625;-65
2023/03/19 07:23:50;;;;;;;5.60;2.50;;;12.80;99.90;;;13.02;nan;100518.03;4954486;28;20724;-66
2023/03/19 07:26:17;;;;;;;3.80;3.00;;;12.80;99.90;;;13.00;nan;100520.78;4953223;28;20924;-66
2023/03/19 07:28:44;;;;;;;2.37;2.23;;;12.80;99.90;;;12.92;nan;100517.97;4952965;28;20702;-66
2023/03/19 07:31:11;;;;;;;3.13;2.80;;;12.80;99.90;;;12.93;nan;100517.00;4968720;28;21039;-64
2023/03/19 07:33:39;;;;;;;5.43;3.40;;;12.70;99.90;;;12.87;nan;100521.91;4960310;28;20682;-65
2023/03/19 07:36:06;;;;;;;3.03;2.77;;;12.70;99.90;;;12.85;nan;100515.97;4971594;28;20627;-67
2023/03/19 07:38:33;;;;;;;2.60;2.50;;;12.70;99.90;;;12.86;nan;100522.91;4966768;28;21487;-66
2023/03/19 07:41:00;;;;;;;2.93;2.73;;;12.70;99.90;;;12.89;nan;100525.25;4963699;28;21188;-66
2023/03/19 07:43:30;;;;;;;2.97;2.77;;;12.70;99.90;;;12.92;nan;100525.00;4967171;28;20639;-66
2023/03/19 07:45:58;;;;;;;6.47;3.27;;;12.70;99.90;;;12.94;nan;100526.53;4970624;28;20631;-66
2023/03/19 07:48:25;;;;;;;4.00;3.60;;;12.70;99.90;;;12.99;nan;100524.34;4970781;28;20682;-66
2023/03/19 07:50:53;;;;;;;3.23;3.03;;;12.80;99.90;;;13.08;nan;100521.00;4971252;28;20619;-66
2023/03/19 07:53:20;;;;;;;4.87;3.10;;;12.80;99.90;;;13.11;nan;100528.63;4970827;28;20671;-66
2023/03/19 07:55:47;;;;;;;5.37;2.90;;;12.90;99.90;;;13.12;nan;100524.19;4970743;28;20974;-65
2023/03/19 07:58:15;;;;;;;3.50;3.17;;;12.90;99.90;;;13.20;nan;100519.94;4970887;28;20669;-66
2023/03/19 08:00:43;;;;;;;3.63;3.33;;;13.00;99.90;;;13.29;nan;100525.41;4951869;28;20817;-67
2023/03/19 08:03:11;;;;;;;2.20;2.10;;;13.00;99.90;;;13.40;nan;100520.88;4966325;28;20646;-66
2023/03/19 08:05:38;;;;;;;5.60;3.37;;;13.20;99.90;;;13.48;nan;100521.06;4969669;28;20634;-65
2023/03/19 08:08:05;;;;;;;3.17;2.10;;;13.20;99.90;;;13.55;nan;100516.97;4965636;28;20674;-63
2023/03/19 08:10:32;;;;;;;2.40;2.30;;;13.30;99.90;;;13.56;nan;100513.38;4968411;28;20637;-64
2023/03/19 08:13:03;;;;;;;6.10;3.43;;;13.30;99.90;;;13.70;nan;100518.25;4970157;28;20697;-66
2023/03/19 08:15:30;;;;;;;3.47;3.17;;;13.50;99.90;;;13.87;nan;100517.63;4969385;28;20689;-67
2023/03/19 08:18:04;;;;;;;6.00;3.70;;;13.60;99.90;;;14.01;nan;100516.44;4970710;28;20639;-67
2023/03/19 08:20:32;;;;;;;3.30;3.03;;;13.80;99.90;;;14.13;nan;100514.50;4969560;28;20631;-66
2023/03/19 08:22:59;;;;;;;7.30;2.70;;;13.90;99.90;;;14.34;nan;100515.25;4971494;28;20642;-67
2023/03/19 08:25:31;;;;;;;4.77;3.27;;;14.10;99.90;;;14.52;nan;100517.03;4985471;28;20631;-64
2023/03/19 08:27:59;;;;;;;3.50;2.77;;;14.20;99.90;;;14.67;nan;100514.84;4958036;28;20738;-66
2023/03/19 08:30:27;;;;;;;3.53;3.17;;;14.40;99.90;;;14.86;nan;100520.09;4951809;28;20678;-66
2023/03/19 08:32:54;;;;;;;3.07;2.83;;;14.60;99.90;;;15.08;nan;100525.03;4963914;28;20663;-66
2023/03/19 08:35:21;;;;;;;8.43;2.70;;;14.80;99.90;;;15.38;nan;100527.44;4971234;28;20619;-66
2023/03/19 08:37:48;;;;;;;2.60;2.40;;;15.10;99.90;;;15.51;nan;100522.72;4950896;28;20668;-66
2023/03/19 08:40:15;;;;;;;3.67;2.70;;;15.30;99.90;;;15.77;nan;100527.31;4951413;29;21182;-66
2023/03/19 08:42:42;;;;;;;4.87;3.30;;;15.50;99.90;;;16.07;nan;100527.00;4956474;28;20630;-66
2023/03/19 08:45:13;;;;;;;3.60;3.30;;;15.80;99.90;;;16.30;nan;100529.09;4971382;28;20619;-65
2023/03/19 08:47:41;;;;;;;2.70;2.50;;;16.10;99.90;;;16.56;nan;100529.19;4970417;28;20721;-65
2023/03/19 08:50:09;;;;;;;3.07;2.77;;;16.30;99.90;;;16.83;nan;100537.00;4970298;28;21239;-66
2023/03/19 08:52:36;;;;;;;1.23;1.20;;;16.60;99.90;;;17.04;nan;100534.84;4972734;28;20748;-65
2023/03/19 08:55:04;;;;;;;2.77;2.57;;;16.80;99.90;;;17.17;nan;100536.25;4974717;28;20627;-67
2023/03/19 08:57:31;;;;;;;4.30;3.73;;;17.00;99.90;;;17.51;nan;100537.16;4973435;28;20659;-67
2023/03/19 08:59:59;;;;;;;5.23;2.87;;;17.30;99.90;;;18.13;nan;100544.69;4974534;28;20603;-66
2023/03/19 09:02:26;;;;;;;3.47;2.97;;;17.90;99.90;;;18.75;nan;100537.22;4973768;28;20643;-64
2023/03/19 09:04:53;;;;;;;5.27;3.40;;;18.50;98.50;;;19.16;nan;100541.50;4958601;28;21207;-66
2023/03/19 09:07:20;;;;;;;3.33;3.10;;;19.00;97.30;;;19.25;nan;100537.84;4958627;28;20724;-66
2023/03/19 09:09:47;;;;;;;3.07;2.83;;;19.10;96.20;;;19.23;nan;100542.47;4967836;28;21059;-65
2023/03/19 09:12:17;;;;;;;3.47;2.43;;;19.10;95.60;;;19.31;nan;100537.19;4973052;28;20706;-66
2023/03/19 09:14:44;;;;;;;8.50;5.20;;;19.10;95.50;;;19.78;nan;100539.88;4971877;28;20653;-67
2023/03/19 09:17:12;;;;;;;5.50;4.03;;;19.60;94.90;;;20.06;nan;100544.53;4973481;28;20670;-67
2023/03/19 09:19:40;;;;;;;3.23;2.93;;;19.90;93.70;;;20.38;nan;100540.91;4964507;28;20695;-66
2023/03/19 09:22:07;;;;;;;3.60;2.60;;;20.10;92.70;;;20.60;nan;100540.09;4967491;28;20642;-69
2023/03/19 09:24:34;;;;;;;3.30;2.37;;;20.50;91.10;;;21.21;nan;100551.56;4965068;28;20698;-70
2023/03/19 09:27:01;;;;;;;2.93;2.73;;;20.90;90.50;;;22.13;nan;100556.31;4962386;28;20659;-69
2023/03/19 09:29:29;;;;;;;7.00;4.90;;;21.90;85.80;;;22.74;nan;100553.16;4965246;28;20638;-69
2023/03/19 09:31:56;;;;;;;4.13;2.67;;;22.60;82.50;;;24.18;nan;100546.13;4961233;28;20631;-69
2023/03/19 09:34:22;;;;;;;5.60;2.80;;;23.90;78.40;;;25.46;nan;100549.34;4955309;29;21314;-69
2023/03/19 09:36:50;;;;;;;2.77;2.57;;;25.20;72.80;;;26.55;nan;100556.34;4957758;28;21385;-66
2023/03/19 09:39:17;;;;;;;3.63;3.30;;;26.40;68.50;;;27.09;nan;100546.91;4972827;28;20634;-69
2023/03/19 09:42:08;;;;;;;2.30;2.17;;;27.20;64.50;;;27.55;nan;100553.47;4962373;28;21058;-67
2023/03/19 09:44:38;;;;;;;2.80;2.60;;;27.60;60.40;;;27.44;nan;100551.53;4967159;28;20646;-66
2023/03/19 09:47:33;;;;;;;3.10;2.20;;;27.70;58.00;;;26.58;nan;100555.88;4953839;28;20639;-68
2023/03/19 09:50:16;;;;;;;2.53;2.00;;;26.90;56.50;;;25.57;nan;100550.56;4972692;28;20704;-68
2023/03/19 09:52:52;;;;;;;5.73;2.10;;;25.70;58.40;;;26.09;nan;100550.41;4980069;28;20644;-67
2023/03/19 09:55:42;;;;;;;1.30;1.30;;;26.10;57.50;;;23.92;nan;100544.16;4973342;28;20696;-67
2023/03/19 09:58:17;;;;;;;3.47;2.30;;;24.50;58.70;;;22.76;nan;100540.47;4951841;28;20647;-67
2023/03/19 10:00:49;;;;;;;8.43;1.90;;;23.00;61.40;;;22.03;nan;100550.50;4955548;28;20640;-68
2023/03/19 10:03:28;;;;;;;1.50;1.40;;;22.20;62.90;;;21.60;nan;100541.50;4987752;28;20637;-68
2023/03/19 10:06:32;;;;;;;2.33;2.13;;;21.60;64.50;;;21.59;nan;100539.88;4968259;28;20693;-69
2023/03/19 10:09:17;;;;;;;2.60;2.40;;;21.40;64.90;;;21.72;nan;100544.53;4977797;28;21208;-70
2023/03/19 10:12:21;;;;;;;2.50;2.30;;;21.50;65.20;;;22.25;nan;100545.03;4971787;28;20619;-68
2023/03/19 10:15:22;;;;;;;3.40;2.83;;;21.80;65.80;;;25.37;nan;100546.03;4970703;28;20674;-69
2023/03/19 10:17:57;;;;;;;2.43;2.23;;;24.50;61.20;;;29.24;nan;100539.81;4972093;28;20704;-67
2023/03/19 10:20:43;;;;;;;2.10;2.00;;;28.70;56.10;;;31.95;nan;100546.56;4971222;28;20638;-68
2023/03/19 10:23:27;;;;;;;2.17;2.07;;;31.60;51.60;;;32.71;nan;100545.50;4961985;28;20682;-67
2023/03/19 10:25:57;;;;;;;2.50;2.30;;;32.90;48.00;;;33.01;nan;100539.56;4968725;28;20697;-66
2023/03/19 10:28:28;;;;;;;2.10;2.00;;;33.40;46.20;;;33.68;nan;100531.56;4972318;28;20720;-68
2023/03/19 10:30:59;;;;;;;2.23;2.03;;;34.00;45.60;;;34.07;nan;100532.84;4965168;28;20640;-67
2023/03/19 10:33:57;;;;;;;2.40;2.30;;;34.60;43.70;;;34.68;nan;100540.00;4972734;28;20659;-67
2023/03/19 10:36:34;;;;;;;1.80;1.70;;;35.10;42.30;;;34.72;nan;100542.97;4973781;28;21213;-68